Time;durP1;ratioP1;P1;durP2;ratioP2;P2;SDS_P1;SDS_P2;PMS_P1;PMS_P2;Temp;Humidity;BMP_temperature;BMP_pressure;BME280_temperature;BME280_humidity;BME280_pressure;Samples;Min_cycle;Max_cycle;Signal;HPM_P1;HPM_P2
2021/04/23 00:00:27;;;;;;;3.90;1.63;;;11.20;55.30;;;;;;6186800;23;20008;-48
2021/04/23 00:02:55;;;;;;;4.30;2.00;;;11.20;55.30;;;;;;6185832;23;20032;-48
2021/04/23 00:05:21;;;;;;;5.45;2.13;;;11.20;55.40;;;;;;6186357;23;20068;-48
2021/04/23 00:07:47;;;;;;;4.22;1.95;;;11.20;55.40;;;;;;6186711;23;20013;-48
2021/04/23 00:10:16;;;;;;;6.25;2.17;;;11.20;55.50;;;;;;6185844;23;20055;-48
2021/04/23 00:12:42;;;;;;;2.38;1.45;;;11.20;55.50;;;;;;6186769;23;20012;-47
2021/04/23 00:15:13;;;;;;;5.35;1.98;;;11.20;55.50;;;;;;6186174;23;20409;-48
2021/04/23 00:17:39;;;;;;;1.88;1.60;;;11.20;55.60;;;;;;6186800;23;20012;-48
2021/04/23 00:20:18;;;;;;;10.05;2.42;;;11.20;55.60;;;;;;6185870;23;20033;-48
2021/04/23 00:22:44;;;;;;;4.95;2.40;;;11.20;55.50;;;;;;6186414;23;20009;-47
2021/04/23 00:25:11;;;;;;;9.30;1.95;;;11.10;55.60;;;;;;6186472;23;19998;-48
2021/04/23 00:27:38;;;;;;;5.38;1.40;;;11.10;55.70;;;;;;6186376;23;20382;-48
2021/04/23 00:30:06;;;;;;;2.53;1.70;;;11.10;55.60;;;;;;6186067;23;20000;-48
2021/04/23 00:32:31;;;;;;;3.22;1.60;;;11.10;55.70;;;;;;6186937;23;20001;-48
2021/04/23 00:34:57;;;;;;;9.05;1.90;;;11.10;55.60;;;;;;6186546;23;20408;-48
2021/04/23 00:37:24;;;;;;;8.45;1.60;;;11.10;55.70;;;;;;6185927;23;20011;-48
2021/04/23 00:39:49;;;;;;;7.97;2.33;;;11.10;55.70;;;;;;6186111;23;20016;-48
2021/04/23 00:42:15;;;;;;;5.50;1.85;;;11.10;55.70;;;;;;6186088;23;20005;-48
2021/04/23 00:44:41;;;;;;;3.20;1.70;;;11.10;55.70;;;;;;6186497;23;20072;-48
2021/04/23 00:47:07;;;;;;;7.13;2.08;;;11.10;55.70;;;;;;6186668;23;20524;-48
2021/04/23 00:49:32;;;;;;;5.68;1.92;;;11.10;55.70;;;;;;6185686;23;20005;-48
2021/04/23 00:52:01;;;;;;;6.68;1.65;;;11.10;55.80;;;;;;6209417;23;20012;-47
2021/04/23 00:54:29;;;;;;;5.03;2.15;;;11.10;55.80;;;;;;6185812;23;20416;-48
2021/04/23 00:56:55;;;;;;;2.88;1.80;;;11.10;55.80;;;;;;6185809;23;20079;-48
2021/04/23 00:59:21;;;;;;;6.93;1.70;;;11.10;55.90;;;;;;6185649;23;20283;-48
2021/04/23 01:01:58;;;;;;;3.85;1.63;;;11.10;56.00;;;;;;6186000;23;20008;-48
2021/04/23 01:04:28;;;;;;;1.88;1.50;;;11.10;55.90;;;;;;6186353;23;20005;-48
2021/04/23 01:06:54;;;;;;;3.22;1.75;;;11.00;55.90;;;;;;6185890;23;20009;-48
2021/04/23 01:09:24;;;;;;;7.38;1.67;;;11.10;56.00;;;;;;6185337;23;20397;-48
2021/04/23 01:11:52;;;;;;;9.48;1.77;;;11.00;55.90;;;;;;6186346;23;20009;-48
2021/04/23 01:14:18;;;;;;;8.25;1.48;;;11.00;55.90;;;;;;6185861;23;20015;-48
2021/04/23 01:16:44;;;;;;;8.20;2.17;;;11.00;56.00;;;;;;6186026;23;20009;-48
2021/04/23 01:19:13;;;;;;;10.35;2.17;;;11.00;56.00;;;;;;6185661;23;20060;-48
2021/04/23 01:21:39;;;;;;;8.55;2.20;;;11.00;56.00;;;;;;6185495;23;20032;-48
2021/04/23 01:24:07;;;;;;;8.20;1.85;;;11.00;56.00;;;;;;6185803;23;20301;-48
2021/04/23 01:26:35;;;;;;;6.45;1.85;;;11.00;56.00;;;;;;6185526;23;20005;-48
2021/04/23 01:29:03;;;;;;;4.10;1.80;;;11.00;56.00;;;;;;6185776;23;20005;-48
2021/04/23 01:31:31;;;;;;;6.75;1.67;;;11.00;56.10;;;;;;6209184;23;20047;-48
2021/04/23 01:34:07;;;;;;;8.68;2.20;;;11.00;56.10;;;;;;6186037;23;20076;-47
2021/04/23 01:36:34;;;;;;;8.70;1.67;;;11.00;56.10;;;;;;6185641;23;20012;-48
2021/04/23 01:39:00;;;;;;;4.00;1.40;;;11.00;56.10;;;;;;6185632;23;20004;-47
2021/04/23 01:41:26;;;;;;;3.50;1.88;;;11.00;56.20;;;;;;6185339;23;20317;-48
2021/04/23 01:43:52;;;;;;;2.40;1.83;;;11.00;56.10;;;;;;6184463;23;20005;-47
2021/04/23 01:46:19;;;;;;;5.93;1.70;;;11.00;56.20;;;;;;6185860;23;20312;-47
2021/04/23 01:48:44;;;;;;;4.32;1.70;;;11.00;56.10;;;;;;6185098;23;20004;-48
2021/04/23 01:51:12;;;;;;;6.22;1.90;;;11.00;56.20;;;;;;6184893;23;20029;-48
2021/04/23 01:53:39;;;;;;;2.88;1.58;;;10.90;56.20;;;;;;6185972;23;20024;-47
2021/04/23 01:56:06;;;;;;;8.55;2.10;;;11.00;56.20;;;;;;6185662;23;20048;-47
2021/04/23 01:58:34;;;;;;;4.70;2.08;;;11.00;56.20;;;;;;6185853;23;20008;-47
2021/04/23 02:01:00;;;;;;;3.50;1.73;;;10.90;56.20;;;;;;6185508;23;20016;-48
2021/04/23 02:03:26;;;;;;;6.70;1.58;;;10.90;56.20;;;;;;6185591;23;20059;-48
2021/04/23 02:05:54;;;;;;;7.18;1.88;;;10.90;56.70;;;;;;6185984;23;20005;-48
2021/04/23 02:08:23;;;;;;;6.47;1.60;;;10.90;56.20;;;;;;6185422;23;20013;-47
2021/04/23 02:10:54;;;;;;;7.32;1.92;;;10.90;56.20;;;;;;6185500;23;20001;-47
2021/04/23 02:13:24;;;;;;;10.60;2.22;;;10.90;56.20;;;;;;6185804;23;20009;-47
2021/04/23 02:15:50;;;;;;;3.25;1.70;;;10.90;56.30;;;;;;6185485;23;20397;-47
2021/04/23 02:18:16;;;;;;;5.07;1.88;;;10.90;56.30;;;;;;6185074;23;20136;-47
2021/04/23 02:20:42;;;;;;;11.70;1.90;;;10.90;56.30;;;;;;6185114;23;20036;-48
2021/04/23 02:23:10;;;;;;;9.32;1.70;;;10.90;56.30;;;;;;6185640;23;20031;-47
2021/04/23 02:25:37;;;;;;;4.70;1.65;;;10.90;56.30;;;;;;6186276;23;20001;-48
2021/04/23 02:28:04;;;;;;;3.78;1.75;;;10.90;56.30;;;;;;6187416;23;20024;-47
2021/04/23 02:30:36;;;;;;;9.32;1.85;;;10.90;56.40;;;;;;6187014;23;20347;-47
2021/04/23 02:33:03;;;;;;;14.77;1.85;;;10.90;56.40;;;;;;6187641;23;20012;-48
2021/04/23 02:35:28;;;;;;;2.85;1.55;;;10.90;56.30;;;;;;6187339;23;20009;-47
2021/04/23 02:37:54;;;;;;;5.60;1.92;;;10.90;56.40;;;;;;6187792;23;20005;-47
2021/04/23 02:40:23;;;;;;;8.18;1.83;;;10.90;56.40;;;;;;6183152;23;20006;-47
2021/04/23 02:42:51;;;;;;;6.22;2.00;;;10.80;56.40;;;;;;6187177;23;20401;-47
2021/04/23 02:45:21;;;;;;;4.25;1.88;;;10.90;56.40;;;;;;6187201;23;20005;-48
2021/04/23 02:47:48;;;;;;;7.22;1.98;;;10.80;56.40;;;;;;6186999;23;20017;-47
2021/04/23 02:50:17;;;;;;;5.70;1.95;;;10.80;56.40;;;;;;6187049;23;20063;-47
2021/04/23 02:52:43;;;;;;;6.68;1.70;;;10.80;56.40;;;;;;6187497;23;20005;-48
2021/04/23 02:55:10;;;;;;;8.82;2.05;;;10.80;56.40;;;;;;6187030;23;20055;-47
2021/04/23 02:57:35;;;;;;;6.85;2.42;;;10.90;56.50;;;;;;6187200;23;20007;-47
2021/04/23 03:00:03;;;;;;;6.85;1.90;;;10.80;56.40;;;;;;6186594;23;20111;-47
2021/04/23 03:02:29;;;;;;;7.97;2.53;;;10.80;56.50;;;;;;6187377;23;20004;-47
2021/04/23 03:04:56;;;;;;;6.18;2.20;;;10.80;56.50;;;;;;6186902;23;20352;-47
2021/04/23 03:07:22;;;;;;;13.93;2.05;;;10.80;56.50;;;;;;6187263;23;20016;-47
2021/04/23 03:09:49;;;;;;;6.43;2.17;;;10.80;56.50;;;;;;6186484;23;20009;-47
2021/04/23 03:12:15;;;;;;;6.75;2.33;;;10.80;56.50;;;;;;6187359;23;20005;-47
2021/04/23 03:14:40;;;;;;;8.60;2.50;;;10.80;56.50;;;;;;6187162;23;20085;-47
2021/04/23 03:17:06;;;;;;;8.20;1.88;;;10.80;56.50;;;;;;6187276;23;20077;-48
2021/04/23 03:19:32;;;;;;;7.85;2.42;;;10.80;56.50;;;;;;6186460;23;20405;-47
2021/04/23 03:21:57;;;;;;;5.03;2.15;;;10.80;56.60;;;;;;6186997;23;20005;-47
2021/04/23 03:24:23;;;;;;;8.10;2.13;;;10.80;56.50;;;;;;6187289;23;20274;-48
2021/04/23 03:26:49;;;;;;;12.40;2.17;;;10.80;56.60;;;;;;6186609;23;20088;-47
2021/04/23 03:29:17;;;;;;;8.15;1.92;;;10.80;56.60;;;;;;6186743;23;20009;-47
2021/04/23 03:31:44;;;;;;;10.43;1.80;;;10.80;56.50;;;;;;6186664;23;20297;-47
2021/04/23 03:34:10;;;;;;;3.70;2.10;;;10.80;56.60;;;;;;6187206;23;20009;-47
2021/04/23 03:36:36;;;;;;;11.60;2.03;;;10.80;56.60;;;;;;6186097;23;20393;-47
2021/04/23 03:39:04;;;;;;;6.30;1.92;;;10.70;56.60;;;;;;6186696;23;19997;-48
2021/04/23 03:41:32;;;;;;;6.88;2.25;;;10.70;56.60;;;;;;6186269;23;20005;-48
2021/04/23 03:43:59;;;;;;;11.18;2.35;;;10.70;57.20;;;;;;6187006;23;20008;-48
2021/04/23 03:46:25;;;;;;;6.35;1.85;;;10.70;56.60;;;;;;6186744;23;20459;-47
2021/04/23 03:48:52;;;;;;;8.98;2.03;;;10.70;56.70;;;;;;6186393;23;20005;-47
2021/04/23 03:51:19;;;;;;;8.27;2.80;;;10.70;56.70;;;;;;6186795;23;20024;-48
2021/04/23 03:53:46;;;;;;;7.43;2.10;;;10.70;56.60;;;;;;6186917;23;20073;-47
2021/04/23 03:56:13;;;;;;;8.90;1.98;;;10.70;56.70;;;;;;6186595;23;20007;-47
2021/04/23 03:58:40;;;;;;;8.40;2.10;;;10.70;56.70;;;;;;6186530;23;20063;-47
2021/04/23 04:01:11;;;;;;;5.82;2.38;;;10.70;56.70;;;;;;6186273;23;20009;-48
2021/04/23 04:03:37;;;;;;;4.35;2.03;;;10.70;56.70;;;;;;6186811;23;19997;-47
2021/04/23 04:06:05;;;;;;;9.10;2.28;;;10.70;56.70;;;;;;6186710;23;20008;-48
2021/04/23 04:08:30;;;;;;;13.15;2.30;;;10.70;56.70;;;;;;6185921;23;20317;-47
2021/04/23 04:10:56;;;;;;;4.47;2.17;;;10.70;56.70;;;;;;6186210;23;20081;-47
2021/04/23 04:13:22;;;;;;;8.95;2.22;;;10.70;56.70;;;;;;6186758;23;20005;-47
2021/04/23 04:15:48;;;;;;;5.53;1.95;;;10.70;56.80;;;;;;6209837;23;20095;-47
2021/04/23 04:18:16;;;;;;;3.92;1.77;;;10.70;56.80;;;;;;6186691;23;20101;-47
2021/04/23 04:20:44;;;;;;;4.53;1.80;;;10.70;56.80;;;;;;6185757;23;20131;-47
2021/04/23 04:23:16;;;;;;;7.55;3.05;;;10.70;56.80;;;;;;6186035;23;20424;-47
2021/04/23 04:25:45;;;;;;;6.85;2.50;;;10.70;56.80;;;;;;6186597;23;20005;-47
2021/04/23 04:28:10;;;;;;;7.18;1.92;;;10.70;56.80;;;;;;6186498;23;20017;-47
2021/04/23 04:30:37;;;;;;;13.82;2.35;;;10.60;56.70;;;;;;6186255;23;20031;-48
2021/04/23 04:33:04;;;;;;;6.80;2.63;;;10.70;56.80;;;;;;6185954;23;20052;-48
2021/04/23 04:35:31;;;;;;;5.78;2.72;;;10.70;56.80;;;;;;6185824;23;20005;-48
2021/04/23 04:37:57;;;;;;;10.90;2.25;;;10.70;56.80;;;;;;6185837;23;20001;-48
2021/04/23 04:40:24;;;;;;;5.72;1.92;;;10.70;56.80;;;;;;6186211;23;20008;-48
2021/04/23 04:42:50;;;;;;;3.28;1.90;;;10.70;56.80;;;;;;6186238;23;20007;-48
2021/04/23 04:45:19;;;;;;;7.65;2.17;;;10.70;56.80;;;;;;6186145;23;20348;-48
2021/04/23 04:47:45;;;;;;;9.80;2.55;;;10.60;56.70;;;;;;6185702;23;20009;-48
2021/04/23 04:50:15;;;;;;;10.50;3.15;;;10.70;56.80;;;;;;6185790;23;19997;-48
2021/04/23 04:52:40;;;;;;;9.87;2.33;;;10.60;56.70;;;;;;6186238;23;20024;-48
2021/04/23 04:55:07;;;;;;;10.60;2.58;;;10.60;56.70;;;;;;6186480;23;20412;-48
2021/04/23 04:57:36;;;;;;;15.55;2.80;;;10.60;56.70;;;;;;6186223;23;20001;-48
2021/04/23 05:00:05;;;;;;;5.90;2.65;;;10.60;56.70;;;;;;6185764;23;20008;-47
2021/04/23 05:02:31;;;;;;;14.73;2.83;;;10.70;56.70;;;;;;6185782;23;20005;-48
2021/04/23 05:04:57;;;;;;;5.13;2.25;;;10.70;56.70;;;;;;6186062;23;20051;-48
2021/04/23 05:07:22;;;;;;;7.55;2.10;;;10.70;56.80;;;;;;6186142;23;20013;-47
2021/04/23 05:09:48;;;;;;;4.82;2.15;;;10.70;56.70;;;;;;6185572;23;19998;-48
2021/04/23 05:12:13;;;;;;;9.63;2.50;;;10.70;56.70;;;;;;6185723;23;20009;-48
2021/04/23 05:14:39;;;;;;;8.38;1.73;;;10.70;56.70;;;;;;6186139;23;20004;-48
2021/04/23 05:17:05;;;;;;;6.32;2.75;;;10.70;56.60;;;;;;6186051;23;20378;-48
2021/04/23 05:19:30;;;;;;;13.77;3.42;;;10.80;56.50;;;;;;6185173;23;20269;-48
2021/04/23 05:21:56;;;;;;;11.65;3.05;;;10.80;56.40;;;;;;6185672;23;20055;-47
2021/04/23 05:24:21;;;;;;;8.52;2.30;;;10.80;56.40;;;;;;6185680;23;20020;-48
2021/04/23 05:26:47;;;;;;;10.07;3.72;;;10.80;56.40;;;;;;6185802;23;20013;-48
2021/04/23 05:29:12;;;;;;;11.27;3.17;;;10.90;56.30;;;;;;6185711;23;20297;-48
2021/04/23 05:31:38;;;;;;;5.82;2.75;;;10.90;56.70;;;;;;6186045;23;19997;-48
2021/04/23 05:34:04;;;;;;;10.20;3.08;;;10.90;56.00;;;;;;6185601;23;20340;-48
2021/04/23 05:36:29;;;;;;;8.95;3.05;;;10.90;55.80;;;;;;6185764;23;20745;-47
2021/04/23 05:38:55;;;;;;;13.70;3.03;;;10.90;55.60;;;;;;6185311;23;20035;-48
2021/04/23 05:41:21;;;;;;;11.20;2.40;;;11.00;55.40;;;;;;6185697;23;20005;-48
2021/04/23 05:43:48;;;;;;;6.65;2.83;;;11.10;55.30;;;;;;6185676;23;20197;-48
2021/04/23 05:46:17;;;;;;;8.50;3.42;;;11.10;55.20;;;;;;6185442;23;20005;-48
2021/04/23 05:48:44;;;;;;;6.38;2.92;;;11.10;55.20;;;;;;6185099;23;20013;-48
2021/04/23 05:51:09;;;;;;;8.82;3.10;;;11.10;55.20;;;;;;6185953;23;20087;-48
2021/04/23 05:53:35;;;;;;;7.47;3.00;;;11.10;55.20;;;;;;6185784;23;20028;-47
2021/04/23 05:56:00;;;;;;;10.55;3.22;;;11.10;55.30;;;;;;6185638;23;20009;-47
2021/04/23 05:58:26;;;;;;;11.55;2.60;;;11.10;54.60;;;;;;6185041;23;20005;-47
2021/04/23 06:00:52;;;;;;;6.55;2.67;;;11.10;54.40;;;;;;6186919;23;20076;-47
2021/04/23 06:03:17;;;;;;;13.32;4.15;;;11.20;54.10;;;;;;6187481;23;20096;-47
2021/04/23 06:05:43;;;;;;;6.80;2.15;;;11.20;53.90;;;;;;6187696;23;20008;-47
2021/04/23 06:08:12;;;;;;;7.75;2.75;;;11.20;53.80;;;;;;6187321;23;20019;-47
2021/04/23 06:10:38;;;;;;;11.25;2.45;;;11.30;53.80;;;;;;6187711;23;20009;-48
2021/04/23 06:13:04;;;;;;;6.63;2.47;;;11.30;53.80;;;;;;6187768;23;20029;-47
2021/04/23 06:15:30;;;;;;;11.15;2.42;;;11.40;53.90;;;;;;6187837;23;20091;-48
2021/04/23 06:17:56;;;;;;;9.05;2.60;;;11.40;53.80;;;;;;6187160;23;20390;-47
2021/04/23 06:20:28;;;;;;;12.80;2.95;;;11.50;53.90;;;;;;6187133;23;20012;-47
2021/04/23 06:22:55;;;;;;;4.80;2.08;;;11.50;53.90;;;;;;6187711;23;20000;-47
2021/04/23 06:25:21;;;;;;;6.60;2.22;;;11.60;53.90;;;;;;6187360;23;20423;-47
2021/04/23 06:27:50;;;;;;;8.98;2.85;;;11.60;53.90;;;;;;6187559;23;20144;-47
2021/04/23 06:30:18;;;;;;;8.60;2.45;;;11.60;53.90;;;;;;6187219;23;20005;-47
2021/04/23 06:32:45;;;;;;;10.75;3.30;;;11.70;53.90;;;;;;6187038;23;20397;-47
2021/04/23 06:35:15;;;;;;;8.02;2.63;;;11.70;53.90;;;;;;6187742;23;20001;-47
2021/04/23 06:37:41;;;;;;;9.67;2.83;;;11.80;53.80;;;;;;6187224;23;20406;-47
2021/04/23 06:40:07;;;;;;;7.65;2.95;;;11.80;53.80;;;;;;6187423;23;20021;-47
2021/04/23 06:42:33;;;;;;;9.02;2.10;;;11.90;53.80;;;;;;6187043;23;20397;-47
2021/04/23 06:44:58;;;;;;;12.70;3.13;;;11.90;53.80;;;;;;6187048;23;19997;-47
2021/04/23 06:47:24;;;;;;;4.18;2.05;;;12.00;53.80;;;;;;6187287;23;20084;-47
2021/04/23 06:49:50;;;;;;;7.50;3.00;;;12.00;53.70;;;;;;6186933;23;20009;-47
2021/04/23 06:52:15;;;;;;;14.07;3.00;;;12.00;53.60;;;;;;6187278;23;20009;-47
2021/04/23 06:54:41;;;;;;;11.27;3.25;;;12.10;53.60;;;;;;6187581;23;20008;-47
2021/04/23 06:57:07;;;;;;;7.50;3.35;;;12.10;53.40;;;;;;6187370;23;20009;-47
2021/04/23 06:59:32;;;;;;;6.93;2.90;;;12.20;53.40;;;;;;6186635;23;20382;-47
2021/04/23 07:01:58;;;;;;;6.75;2.58;;;12.20;53.30;;;;;;6187361;23;19998;-47
2021/04/23 07:04:23;;;;;;;9.77;3.40;;;12.20;53.30;;;;;;6187338;23;20024;-47
2021/04/23 07:06:49;;;;;;;12.40;2.72;;;12.20;53.20;;;;;;6187348;23;20393;-47
2021/04/23 07:09:17;;;;;;;16.58;3.55;;;12.30;53.10;;;;;;6186855;23;20303;-47
2021/04/23 07:11:44;;;;;;;7.45;3.15;;;12.30;53.10;;;;;;6187364;23;20005;-47
2021/04/23 07:14:10;;;;;;;10.55;2.60;;;12.30;53.00;;;;;;6187078;23;20009;-48
2021/04/23 07:16:36;;;;;;;12.00;2.45;;;12.40;52.90;;;;;;6187470;23;20292;-47
2021/04/23 07:19:01;;;;;;;7.05;2.95;;;12.40;52.90;;;;;;6186516;23;20351;-48
2021/04/23 07:21:27;;;;;;;14.68;3.10;;;12.50;52.70;;;;;;6187305;23;20040;-47
2021/04/23 07:23:53;;;;;;;9.10;2.72;;;12.50;52.80;;;;;;6187064;23;20005;-47
2021/04/23 07:26:18;;;;;;;11.95;2.95;;;12.50;52.40;;;;;;6187279;23;20358;-48
2021/04/23 07:28:44;;;;;;;7.57;2.30;;;12.60;52.50;;;;;;6186131;23;20444;-47
2021/04/23 07:31:09;;;;;;;6.70;2.55;;;12.60;52.40;;;;;;6186820;23;20077;-48
2021/04/23 07:33:35;;;;;;;10.93;2.72;;;12.60;52.30;;;;;;6187081;23;20005;-48
2021/04/23 07:36:01;;;;;;;8.48;3.05;;;12.70;52.20;;;;;;6187169;23;20001;-48
2021/04/23 07:38:29;;;;;;;4.15;2.35;;;12.70;52.20;;;;;;6186319;23;20349;-47
2021/04/23 07:40:55;;;;;;;6.03;1.23;;;12.70;52.00;;;;;;6187151;23;20009;-48
2021/04/23 07:43:20;;;;;;;9.98;2.35;;;12.70;52.00;;;;;;6186373;23;20019;-47
2021/04/23 07:45:46;;;;;;;7.78;1.83;;;12.70;51.80;;;;;;6187059;23;20005;-48
2021/04/23 07:48:12;;;;;;;9.93;2.25;;;12.80;51.70;;;;;;6186417;23;20013;-47
2021/04/23 07:50:37;;;;;;;11.70;3.33;;;12.80;51.50;;;;;;6186669;23;20079;-48
2021/04/23 07:53:03;;;;;;;12.32;3.55;;;12.90;51.70;;;;;;6185915;23;20013;-47
2021/04/23 07:55:29;;;;;;;8.77;3.00;;;12.80;51.70;;;;;;6187042;23;20289;-47
2021/04/23 07:57:54;;;;;;;10.77;2.00;;;12.90;51.70;;;;;;6186472;23;20001;-47
2021/04/23 08:00:22;;;;;;;15.93;2.25;;;12.90;51.50;;;;;;6186404;23;20009;-47
2021/04/23 08:02:49;;;;;;;5.05;1.13;;;12.90;51.20;;;;;;6186536;23;20009;-48
2021/04/23 08:05:17;;;;;;;10.38;2.03;;;12.90;51.30;;;;;;6186963;23;20083;-48
2021/04/23 08:07:44;;;;;;;13.07;2.58;;;12.90;51.10;;;;;;6186796;23;20013;-48
2021/04/23 08:10:14;;;;;;;12.35;2.70;;;12.90;51.00;;;;;;6185933;23;19997;-48
2021/04/23 08:12:41;;;;;;;14.38;2.28;;;13.00;51.10;;;;;;6186427;23;20037;-48
2021/04/23 08:15:08;;;;;;;11.02;2.75;;;12.90;51.00;;;;;;6186663;23;20065;-48
2021/04/23 08:17:34;;;;;;;6.82;3.40;;;13.00;50.80;;;;;;6186792;23;20005;-48
2021/04/23 08:20:02;;;;;;;7.95;2.95;;;13.00;51.20;;;;;;6185802;23;20009;-48
2021/04/23 08:22:28;;;;;;;12.48;2.58;;;13.00;51.20;;;;;;6186607;23;20062;-47
2021/04/23 08:24:53;;;;;;;14.40;3.15;;;13.00;50.80;;;;;;6186347;23;20025;-48
2021/04/23 08:27:19;;;;;;;11.55;2.78;;;13.00;50.70;;;;;;6186600;23;20017;-48
2021/04/23 08:29:44;;;;;;;6.05;2.38;;;13.00;50.90;;;;;;6185802;23;20005;-48
2021/04/23 08:32:10;;;;;;;10.07;4.13;;;13.00;51.00;;;;;;6186605;23;20343;-48
2021/04/23 08:34:36;;;;;;;11.00;2.33;;;13.10;50.80;;;;;;6186568;23;20392;-48
2021/04/23 08:37:02;;;;;;;11.07;3.40;;;13.10;50.70;;;;;;6186441;23;19997;-48
2021/04/23 08:39:27;;;;;;;11.90;3.22;;;13.10;50.70;;;;;;6186135;23;20447;-48
2021/04/23 08:41:54;;;;;;;1.33;0.65;;;13.10;50.50;;;;;;6186580;23;20005;-48
2021/04/23 08:44:20;;;;;;;5.45;1.50;;;13.10;50.80;;;;;;6186077;23;20005;-48
2021/04/23 08:46:46;;;;;;;6.45;2.40;;;13.10;50.30;;;;;;6186473;23;20012;-47
2021/04/23 08:49:16;;;;;;;11.38;3.35;;;13.20;50.30;;;;;;6185947;23;20005;-47
2021/04/23 08:51:42;;;;;;;10.60;4.10;;;13.10;50.30;;;;;;6186343;23;20059;-47
2021/04/23 08:54:08;;;;;;;13.20;5.50;;;13.20;50.40;;;;;;6185854;23;20413;-47
2021/04/23 08:56:34;;;;;;;8.50;2.70;;;13.20;50.70;;;;;;6186027;23;20401;-47
2021/04/23 08:58:59;;;;;;;11.65;3.88;;;13.20;50.50;;;;;;6185659;23;20084;-47
2021/04/23 09:01:26;;;;;;;12.40;5.25;;;13.20;50.30;;;;;;6185859;23;20005;-47
2021/04/23 09:03:52;;;;;;;20.80;5.75;;;13.20;50.40;;;;;;6186543;23;19997;-47
2021/04/23 09:06:23;;;;;;;17.80;5.60;;;13.20;50.40;;;;;;6186129;23;20009;-47
2021/04/23 09:08:55;;;;;;;28.00;5.75;;;13.20;50.60;;;;;;6185662;23;20401;-47
2021/04/23 09:11:23;;;;;;;18.48;5.50;;;13.20;50.60;;;;;;6185792;23;20087;-47
2021/04/23 09:13:49;;;;;;;18.33;5.28;;;13.20;50.60;;;;;;6186359;23;20009;-47
2021/04/23 09:16:15;;;;;;;7.18;3.05;;;13.20;50.30;;;;;;6186232;23;20006;-47
2021/04/23 09:18:40;;;;;;;12.90;3.53;;;13.20;50.10;;;;;;6185104;23;20296;-48
2021/04/23 09:21:07;;;;;;;15.50;4.13;;;13.20;50.10;;;;;;6186261;23;20016;-47
2021/04/23 09:23:44;;;;;;;27.80;5.65;;;13.20;50.20;;;;;;6186173;23;20009;-47
2021/04/23 09:26:33;;;;;;;9.70;4.28;;;13.30;50.30;;;;;;6185751;23;20401;-47
2021/04/23 09:28:59;;;;;;;15.45;4.82;;;13.20;50.40;;;;;;6185615;23;20039;-47
2021/04/23 09:31:29;;;;;;;11.60;3.67;;;13.30;50.30;;;;;;6185815;23;20001;-47
2021/04/23 09:34:00;;;;;;;12.25;3.40;;;13.30;50.10;;;;;;6185997;23;20001;-47
2021/04/23 09:36:43;;;;;;;19.02;4.93;;;13.30;50.10;;;;;;6185509;23;20005;-47
2021/04/23 09:39:12;;;;;;;16.50;3.85;;;13.30;50.20;;;;;;6185675;23;20393;-47
2021/04/23 09:41:39;;;;;;;13.38;4.72;;;13.30;50.20;;;;;;6186012;23;20084;-47
2021/04/23 09:44:34;;;;;;;7.38;3.15;;;13.30;49.90;;;;;;6185778;23;20005;-48
2021/04/23 09:47:10;;;;;;;12.60;3.97;;;13.30;49.90;;;;;;6185498;23;20005;-48
2021/04/23 09:49:35;;;;;;;13.45;4.57;;;13.30;50.10;;;;;;6185442;23;20011;-47
2021/04/23 09:52:04;;;;;;;13.13;1.80;;;13.40;50.10;;;;;;6185522;23;20076;-48
2021/04/23 09:54:30;;;;;;;9.32;3.63;;;13.40;50.20;;;;;;6185968;23;20009;-48
2021/04/23 09:56:56;;;;;;;15.48;4.53;;;13.40;50.10;;;;;;6185986;23;20375;-47
2021/04/23 09:59:27;;;;;;;8.13;3.28;;;13.40;50.10;;;;;;6184848;23;20012;-48
2021/04/23 10:01:53;;;;;;;8.93;3.88;;;13.40;49.90;;;;;;6185569;23;20005;-47
2021/04/23 10:04:24;;;;;;;10.55;3.45;;;13.40;49.70;;;;;;6185667;23;20088;-47
2021/04/23 10:07:04;;;;;;;12.85;4.07;;;13.40;50.00;;;;;;6185476;23;20321;-47
2021/04/23 10:09:30;;;;;;;13.98;3.47;;;13.40;50.10;;;;;;6185006;23;20413;-48
2021/04/23 10:11:55;;;;;;;6.97;2.38;;;13.40;50.20;;;;;;6185293;23;20012;-48
2021/04/23 10:14:21;;;;;;;11.23;2.75;;;13.40;50.20;;;;;;6185786;23;20060;-48
2021/04/23 10:16:46;;;;;;;11.65;3.25;;;13.40;50.30;;;;;;6209194;23;20003;-48
2021/04/23 10:19:12;;;;;;;12.68;3.25;;;13.40;50.50;;;;;;6185013;23;20024;-48
2021/04/23 10:21:38;;;;;;;8.23;3.38;;;13.40;50.60;;;;;;6185791;23;20009;-48
2021/04/23 10:24:07;;;;;;;12.02;3.58;;;13.40;50.60;;;;;;6185765;23;20024;-48
2021/04/23 10:26:34;;;;;;;18.08;3.25;;;13.40;50.50;;;;;;6185150;23;20032;-48
2021/04/23 10:29:01;;;;;;;9.88;2.80;;;13.40;50.70;;;;;;6185283;23;20048;-48
2021/04/23 10:31:28;;;;;;;7.20;3.17;;;13.40;50.90;;;;;;6185681;23;20005;-48
2021/04/23 10:33:54;;;;;;;13.20;3.47;;;13.40;51.00;;;;;;6185422;23;19997;-48
2021/04/23 10:36:20;;;;;;;14.18;3.53;;;13.40;51.10;;;;;;6185713;23;20001;-48
2021/04/23 10:38:46;;;;;;;9.95;3.08;;;13.50;50.70;;;;;;6185297;23;20027;-48
2021/04/23 10:41:12;;;;;;;13.77;2.70;;;13.50;50.30;;;;;;6185130;23;20649;-48
2021/04/23 10:43:51;;;;;;;6.22;2.65;;;13.40;50.60;;;;;;6185485;23;20016;-48
2021/04/23 10:46:17;;;;;;;10.80;3.30;;;13.50;50.70;;;;;;6186083;23;20001;-48
2021/04/23 10:48:45;;;;;;;9.85;2.17;;;13.50;50.90;;;;;;6187155;23;20033;-48
2021/04/23 10:51:19;;;;;;;4.47;2.13;;;13.40;50.90;;;;;;6186997;23;20414;-48
2021/04/23 10:53:48;;;;;;;10.00;2.67;;;13.50;50.80;;;;;;6187529;23;20032;-48
2021/04/23 10:56:38;;;;;;;7.18;3.15;;;13.40;50.80;;;;;;6187022;23;20029;-48
2021/04/23 10:59:29;;;;;;;4.80;2.85;;;13.40;50.70;;;;;;6187223;23;20005;-47
2021/04/23 11:02:16;;;;;;;5.93;2.63;;;13.50;51.00;;;;;;6186867;23;20435;-48
2021/04/23 11:04:56;;;;;;;11.90;3.05;;;13.50;50.90;;;;;;6187552;23;20005;-48
2021/04/23 11:07:22;;;;;;;;;;;13.40;51.00;;;;;;6187925;23;20017;-48
2021/04/23 11:09:58;;;;;;;10.30;2.88;;;13.50;51.10;;;;;;6186970;23;19910;-48
2021/04/23 11:12:25;;;;;;;3.20;2.08;;;13.50;51.10;;;;;;6187249;23;20001;-48
2021/04/23 11:15:09;;;;;;;3.58;2.30;;;13.50;51.10;;;;;;6186791;23;20063;-48
2021/04/23 11:17:35;;;;;;;5.43;2.58;;;13.50;51.20;;;;;;6187312;23;20052;-48
2021/04/23 11:20:21;;;;;;;7.15;2.28;;;13.40;51.10;;;;;;6186403;23;20016;-48
2021/04/23 11:22:55;;;;;;;9.15;2.80;;;13.50;51.20;;;;;;6186851;23;20455;-48
2021/04/23 11:25:21;;;;;;;6.78;2.38;;;13.50;51.30;;;;;;6187011;23;20078;-48
2021/04/23 11:27:59;;;;;;;5.18;3.10;;;13.50;51.00;;;;;;6187186;23;20013;-48
2021/04/23 11:30:25;;;;;;;8.25;2.80;;;13.50;51.30;;;;;;6186797;23;20020;-47
2021/04/23 11:32:53;;;;;;;13.38;3.38;;;13.40;51.30;;;;;;6187154;23;20001;-48
2021/04/23 11:35:21;;;;;;;11.27;2.88;;;13.50;51.20;;;;;;6186836;23;20009;-48
2021/04/23 11:37:49;;;;;;;5.72;2.50;;;13.50;51.70;;;;;;6187107;23;20001;-48
2021/04/23 11:40:17;;;;;;;8.13;2.50;;;13.50;51.30;;;;;;6186618;23;20012;-47
2021/04/23 11:42:46;;;;;;;8.48;3.17;;;13.50;51.20;;;;;;6187031;23;20012;-48
2021/04/23 11:45:29;;;;;;;8.95;2.53;;;13.50;51.30;;;;;;6186751;23;20001;-48
2021/04/23 11:48:20;;;;;;;7.78;2.63;;;13.50;51.10;;;;;;6187112;23;20304;-48
2021/04/23 11:50:46;;;;;;;9.70;2.92;;;13.50;51.50;;;;;;6183361;23;20012;-48
2021/04/23 11:53:15;;;;;;;6.90;2.63;;;13.50;51.60;;;;;;6186927;23;20001;-48
2021/04/23 11:55:44;;;;;;;12.68;3.38;;;13.50;51.60;;;;;;6186750;23;20013;-48
2021/04/23 11:58:12;;;;;;;4.38;2.10;;;13.50;51.60;;;;;;6186251;23;20008;-48
2021/04/23 12:00:40;;;;;;;4.57;2.20;;;13.50;51.60;;;;;;6186492;23;20051;-47
2021/04/23 12:03:17;;;;;;;7.18;2.33;;;13.50;51.50;;;;;;6186934;23;20008;-48
2021/04/23 12:05:46;;;;;;;7.93;3.08;;;13.60;51.00;;;;;;6186914;23;20282;-48
2021/04/23 12:08:27;;;;;;;11.02;2.83;;;13.60;51.40;;;;;;6186602;23;20013;-47
2021/04/23 12:10:58;;;;;;;7.15;3.15;;;13.50;51.50;;;;;;6186484;23;19997;-48
2021/04/23 12:13:25;;;;;;;13.30;3.53;;;13.50;51.70;;;;;;6186408;23;20048;-48
2021/04/23 12:15:58;;;;;;;11.25;3.33;;;13.50;51.80;;;;;;6186349;23;20029;-48
2021/04/23 12:18:24;;;;;;;5.57;2.90;;;13.50;51.90;;;;;;6186559;23;20008;-47
2021/04/23 12:20:56;;;;;;;12.48;3.50;;;13.50;51.90;;;;;;6185970;23;20019;-47
2021/04/23 12:23:29;;;;;;;13.82;3.80;;;13.50;51.90;;;;;;6186434;23;20340;-48
2021/04/23 12:25:58;;;;;;;5.38;3.00;;;13.50;51.90;;;;;;6186080;23;20001;-47
2021/04/23 12:28:24;;;;;;;11.40;4.15;;;13.50;52.00;;;;;;6185873;23;20017;-48
2021/04/23 12:31:17;;;;;;;15.10;3.03;;;13.50;52.00;;;;;;6186255;23;20012;-48
2021/04/23 12:33:55;;;;;;;8.10;3.10;;;13.70;49.50;;;;;;6186692;23;20001;-48
2021/04/23 12:36:28;;;;;;;9.38;2.75;;;13.60;49.90;;;;;;6186111;23;20010;-48
2021/04/23 12:38:57;;;;;;;4.82;2.45;;;13.60;50.50;;;;;;6185659;23;20404;-48
2021/04/23 12:41:31;;;;;;;6.38;2.30;;;13.60;50.70;;;;;;6186004;23;20071;-48
2021/04/23 12:44:02;;;;;;;6.10;2.90;;;13.60;50.70;;;;;;6186350;23;20001;-48
2021/04/23 12:46:36;;;;;;;11.07;2.97;;;13.60;51.00;;;;;;6186008;23;20317;-49